sensor_id;sensor_type;location;lat;lon;timestamp;temperature;humidity
46091;DHT22;31826;53.572;10.170;2023-04-21T00:00:19;7.00;99.90
46091;DHT22;31826;53.572;10.170;2023-04-21T00:02:45;6.90;99.90
46091;DHT22;31826;53.572;10.170;2023-04-21T00:05:11;6.90;99.90
46091;DHT22;31826;53.572;10.170;2023-04-21T00:07:39;6.90;99.90
46091;DHT22;31826;53.572;10.170;2023-04-21T00:10:09;6.90;99.90
46091;DHT22;31826;53.572;10.170;2023-04-21T00:12:35;6.90;99.90
46091;DHT22;31826;53.572;10.170;2023-04-21T00:15:01;6.90;99.90
46091;DHT22;31826;53.572;10.170;2023-04-21T00:17:27;6.90;99.90
46091;DHT22;31826;53.572;10.170;2023-04-21T00:19:53;6.90;99.90
46091;DHT22;31826;53.572;10.170;2023-04-21T00:22:19;6.90;99.90
46091;DHT22;31826;53.572;10.170;2023-04-21T00:24:46;6.90;99.90
46091;DHT22;31826;53.572;10.170;2023-04-21T00:27:11;6.90;99.90
46091;DHT22;31826;53.572;10.170;2023-04-21T00:29:38;6.90;99.90
46091;DHT22;31826;53.572;10.170;2023-04-21T00:32:05;6.90;99.90
46091;DHT22;31826;53.572;10.170;2023-04-21T00:34:33;6.90;99.90
46091;DHT22;31826;53.572;10.170;2023-04-21T00:36:59;6.90;99.90
46091;DHT22;31826;53.572;10.170;2023-04-21T00:39:24;6.90;99.90
46091;DHT22;31826;53.572;10.170;2023-04-21T00:41:50;6.80;99.90
46091;DHT22;31826;53.572;10.170;2023-04-21T00:44:16;6.80;99.90
46091;DHT22;31826;53.572;10.170;2023-04-21T00:46:42;6.90;99.90
46091;DHT22;31826;53.572;10.170;2023-04-21T00:49:08;6.90;99.90
46091;DHT22;31826;53.572;10.170;2023-04-21T00:51:34;6.80;99.90
46091;DHT22;31826;53.572;10.170;2023-04-21T00:54:04;6.90;99.90
46091;DHT22;31826;53.572;10.170;2023-04-21T00:56:32;6.90;99.90
46091;DHT22;31826;53.572;10.170;2023-04-21T00:58:58;6.90;99.90
46091;DHT22;31826;53.572;10.170;2023-04-21T01:01:25;6.90;99.90
46091;DHT22;31826;53.572;10.170;2023-04-21T01:03:51;6.80;99.90
46091;DHT22;31826;53.572;10.170;2023-04-21T01:06:18;6.70;99.90
46091;DHT22;31826;53.572;10.170;2023-04-21T01:08:47;6.70;99.90
46091;DHT22;31826;53.572;10.170;2023-04-21T01:11:13;6.70;99.90
46091;DHT22;31826;53.572;10.170;2023-04-21T01:13:39;6.70;99.90
46091;DHT22;31826;53.572;10.170;2023-04-21T01:16:06;6.80;99.90
46091;DHT22;31826;53.572;10.170;2023-04-21T01:18:33;6.80;99.90
46091;DHT22;31826;53.572;10.170;2023-04-21T01:20:59;6.80;99.90
46091;DHT22;31826;53.572;10.170;2023-04-21T01:23:25;6.80;99.90
46091;DHT22;31826;53.572;10.170;2023-04-21T01:25:51;6.70;99.90
46091;DHT22;31826;53.572;10.170;2023-04-21T01:28:24;6.80;99.90
46091;DHT22;31826;53.572;10.170;2023-04-21T01:30:50;6.80;99.90
46091;DHT22;31826;53.572;10.170;2023-04-21T01:33:17;6.70;99.90
46091;DHT22;31826;53.572;10.170;2023-04-21T01:35:43;6.70;99.90
46091;DHT22;31826;53.572;10.170;2023-04-21T01:38:09;6.70;99.90
46091;DHT22;31826;53.572;10.170;2023-04-21T01:40:36;6.70;99.90
46091;DHT22;31826;53.572;10.170;2023-04-21T01:43:02;6.70;99.90
46091;DHT22;31826;53.572;10.170;2023-04-21T01:45:31;6.70;99.90
46091;DHT22;31826;53.572;10.170;2023-04-21T01:47:57;6.60;99.90
46091;DHT22;31826;53.572;10.170;2023-04-21T01:50:23;6.70;99.90
46091;DHT22;31826;53.572;10.170;2023-04-21T01:52:49;6.70;99.90
46091;DHT22;31826;53.572;10.170;2023-04-21T01:55:14;6.70;99.90
46091;DHT22;31826;53.572;10.170;2023-04-21T01:57:40;6.60;99.90
46091;DHT22;31826;53.572;10.170;2023-04-21T02:00:06;6.70;99.90
46091;DHT22;31826;53.572;10.170;2023-04-21T02:02:33;6.60;99.90
46091;DHT22;31826;53.572;10.170;2023-04-21T02:04:59;6.60;99.90
46091;DHT22;31826;53.572;10.170;2023-04-21T02:07:25;6.60;99.90
46091;DHT22;31826;53.572;10.170;2023-04-21T02:09:50;6.60;99.90
46091;DHT22;31826;53.572;10.170;2023-04-21T02:12:16;6.60;99.90
46091;DHT22;31826;53.572;10.170;2023-04-21T02:14:42;6.60;99.90
46091;DHT22;31826;53.572;10.170;2023-04-21T02:17:07;6.60;99.90
46091;DHT22;31826;53.572;10.170;2023-04-21T02:19:33;6.60;99.90
46091;DHT22;31826;53.572;10.170;2023-04-21T02:21:59;6.50;99.90
46091;DHT22;31826;53.572;10.170;2023-04-21T02:24:24;6.60;99.90
46091;DHT22;31826;53.572;10.170;2023-04-21T02:26:50;6.50;99.90
46091;DHT22;31826;53.572;10.170;2023-04-21T02:29:16;6.50;99.90
46091;DHT22;31826;53.572;10.170;2023-04-21T02:31:41;6.50;99.90
46091;DHT22;31826;53.572;10.170;2023-04-21T02:34:07;6.60;99.90
46091;DHT22;31826;53.572;10.170;2023-04-21T02:36:33;6.60;99.90
46091;DHT22;31826;53.572;10.170;2023-04-21T02:38:59;6.60;99.90
46091;DHT22;31826;53.572;10.170;2023-04-21T02:41:24;6.60;99.90
46091;DHT22;31826;53.572;10.170;2023-04-21T02:43:50;6.60;99.90
46091;DHT22;31826;53.572;10.170;2023-04-21T02:46:16;6.50;99.90
46091;DHT22;31826;53.572;10.170;2023-04-21T02:48:41;6.60;99.90
46091;DHT22;31826;53.572;10.170;2023-04-21T02:51:13;6.50;99.90
46091;DHT22;31826;53.572;10.170;2023-04-21T02:53:40;6.50;99.90
46091;DHT22;31826;53.572;10.170;2023-04-21T02:56:09;6.50;99.90
46091;DHT22;31826;53.572;10.170;2023-04-21T02:58:35;6.50;99.90
46091;DHT22;31826;53.572;10.170;2023-04-21T03:01:02;6.50;99.90
46091;DHT22;31826;53.572;10.170;2023-04-21T03:03:28;6.50;99.90
46091;DHT22;31826;53.572;10.170;2023-04-21T03:05:58;6.60;99.90
46091;DHT22;31826;53.572;10.170;2023-04-21T03:08:24;6.60;99.90
46091;DHT22;31826;53.572;10.170;2023-04-21T03:10:50;6.50;99.90
46091;DHT22;31826;53.572;10.170;2023-04-21T03:13:16;6.50;99.90
46091;DHT22;31826;53.572;10.170;2023-04-21T03:15:41;6.50;99.90
46091;DHT22;31826;53.572;10.170;2023-04-21T03:18:07;6.50;99.90
46091;DHT22;31826;53.572;10.170;2023-04-21T03:20:33;6.40;99.90
46091;DHT22;31826;53.572;10.170;2023-04-21T03:22:59;6.50;99.90
46091;DHT22;31826;53.572;10.170;2023-04-21T03:25:25;6.40;99.90
46091;DHT22;31826;53.572;10.170;2023-04-21T03:27:53;6.50;99.90
46091;DHT22;31826;53.572;10.170;2023-04-21T03:30:19;6.60;99.90
46091;DHT22;31826;53.572;10.170;2023-04-21T03:32:45;6.60;99.90
46091;DHT22;31826;53.572;10.170;2023-04-21T03:35:10;6.60;99.90
46091;DHT22;31826;53.572;10.170;2023-04-21T03:37:36;6.60;99.90
46091;DHT22;31826;53.572;10.170;2023-04-21T03:40:03;6.60;99.90
46091;DHT22;31826;53.572;10.170;2023-04-21T03:42:31;6.60;99.90
46091;DHT22;31826;53.572;10.170;2023-04-21T03:45:04;6.60;99.90
46091;DHT22;31826;53.572;10.170;2023-04-21T03:47:30;6.60;99.90
46091;DHT22;31826;53.572;10.170;2023-04-21T03:49:56;6.60;99.90
46091;DHT22;31826;53.572;10.170;2023-04-21T03:52:21;6.60;99.90
46091;DHT22;31826;53.572;10.170;2023-04-21T03:54:47;6.60;99.90
46091;DHT22;31826;53.572;10.170;2023-04-21T03:57:13;6.50;99.90
46091;DHT22;31826;53.572;10.170;2023-04-21T03:59:39;6.50;99.90
46091;DHT22;31826;53.572;10.170;2023-04-21T04:02:04;6.50;99.90
46091;DHT22;31826;53.572;10.170;2023-04-21T04:04:30;6.60;99.90
46091;DHT22;31826;53.572;10.170;2023-04-21T04:06:56;6.60;99.90
46091;DHT22;31826;53.572;10.170;2023-04-21T04:09:22;6.60;99.90
46091;DHT22;31826;53.572;10.170;2023-04-21T04:11:48;6.60;99.90
46091;DHT22;31826;53.572;10.170;2023-04-21T04:14:14;6.70;99.90
46091;DHT22;31826;53.572;10.170;2023-04-21T04:16:40;6.60;99.90
46091;DHT22;31826;53.572;10.170;2023-04-21T04:19:06;6.60;99.90
46091;DHT22;31826;53.572;10.170;2023-04-21T04:21:32;6.60;99.90
46091;DHT22;31826;53.572;10.170;2023-04-21T04:23:58;6.60;99.90
46091;DHT22;31826;53.572;10.170;2023-04-21T04:26:24;6.50;99.90
46091;DHT22;31826;53.572;10.170;2023-04-21T04:28:53;6.60;99.90
46091;DHT22;31826;53.572;10.170;2023-04-21T04:31:22;6.60;99.90
46091;DHT22;31826;53.572;10.170;2023-04-21T04:33:50;6.60;99.90
46091;DHT22;31826;53.572;10.170;2023-04-21T04:36:15;6.60;99.90
46091;DHT22;31826;53.572;10.170;2023-04-21T04:38:41;6.60;99.90
46091;DHT22;31826;53.572;10.170;2023-04-21T04:41:07;6.60;99.90
46091;DHT22;31826;53.572;10.170;2023-04-21T04:43:33;6.70;99.90
46091;DHT22;31826;53.572;10.170;2023-04-21T04:46:04;6.70;99.90
46091;DHT22;31826;53.572;10.170;2023-04-21T04:48:30;6.70;99.90
46091;DHT22;31826;53.572;10.170;2023-04-21T04:50:56;6.60;99.90
46091;DHT22;31826;53.572;10.170;2023-04-21T04:53:22;6.60;99.90
46091;DHT22;31826;53.572;10.170;2023-04-21T04:55:48;6.70;99.90
46091;DHT22;31826;53.572;10.170;2023-04-21T04:58:14;6.80;99.90
46091;DHT22;31826;53.572;10.170;2023-04-21T05:00:39;6.90;99.90
46091;DHT22;31826;53.572;10.170;2023-04-21T05:03:05;6.90;99.90
46091;DHT22;31826;53.572;10.170;2023-04-21T05:05:31;6.90;99.90
46091;DHT22;31826;53.572;10.170;2023-04-21T05:07:57;7.00;99.90
46091;DHT22;31826;53.572;10.170;2023-04-21T05:10:23;6.90;99.90
46091;DHT22;31826;53.572;10.170;2023-04-21T05:12:49;7.00;99.90
46091;DHT22;31826;53.572;10.170;2023-04-21T05:15:16;7.10;99.90
46091;DHT22;31826;53.572;10.170;2023-04-21T05:17:41;7.10;99.90
46091;DHT22;31826;53.572;10.170;2023-04-21T05:20:07;7.20;99.90
46091;DHT22;31826;53.572;10.170;2023-04-21T05:22:39;7.30;99.90
46091;DHT22;31826;53.572;10.170;2023-04-21T05:25:06;7.30;99.90
46091;DHT22;31826;53.572;10.170;2023-04-21T05:27:32;7.40;99.90
46091;DHT22;31826;53.572;10.170;2023-04-21T05:30:01;7.50;99.90
46091;DHT22;31826;53.572;10.170;2023-04-21T05:32:26;7.50;99.90
46091;DHT22;31826;53.572;10.170;2023-04-21T05:34:53;7.50;99.90
46091;DHT22;31826;53.572;10.170;2023-04-21T05:37:19;7.60;99.90
46091;DHT22;31826;53.572;10.170;2023-04-21T05:39:44;7.60;99.90
46091;DHT22;31826;53.572;10.170;2023-04-21T05:42:10;7.70;99.90
46091;DHT22;31826;53.572;10.170;2023-04-21T05:44:37;7.80;99.90
46091;DHT22;31826;53.572;10.170;2023-04-21T05:47:05;7.90;99.90
46091;DHT22;31826;53.572;10.170;2023-04-21T05:49:32;7.90;99.90
46091;DHT22;31826;53.572;10.170;2023-04-21T05:51:58;8.00;99.90
46091;DHT22;31826;53.572;10.170;2023-04-21T05:54:23;8.00;99.90
46091;DHT22;31826;53.572;10.170;2023-04-21T05:56:49;8.10;99.90
46091;DHT22;31826;53.572;10.170;2023-04-21T05:59:15;8.10;99.90
46091;DHT22;31826;53.572;10.170;2023-04-21T06:01:42;8.20;99.90
46091;DHT22;31826;53.572;10.170;2023-04-21T06:04:08;8.30;99.90
46091;DHT22;31826;53.572;10.170;2023-04-21T06:06:34;8.30;99.90
46091;DHT22;31826;53.572;10.170;2023-04-21T06:09:00;8.40;99.90
46091;DHT22;31826;53.572;10.170;2023-04-21T06:11:25;8.50;99.90
46091;DHT22;31826;53.572;10.170;2023-04-21T06:13:51;8.60;99.90
46091;DHT22;31826;53.572;10.170;2023-04-21T06:16:19;8.70;99.90
46091;DHT22;31826;53.572;10.170;2023-04-21T06:18:44;8.80;99.90
46091;DHT22;31826;53.572;10.170;2023-04-21T06:21:10;8.90;99.90
46091;DHT22;31826;53.572;10.170;2023-04-21T06:23:36;9.00;99.90
46091;DHT22;31826;53.572;10.170;2023-04-21T06:26:03;9.10;99.90
46091;DHT22;31826;53.572;10.170;2023-04-21T06:28:34;9.10;99.90
46091;DHT22;31826;53.572;10.170;2023-04-21T06:31:00;9.30;99.90
46091;DHT22;31826;53.572;10.170;2023-04-21T06:33:27;9.30;99.90
46091;DHT22;31826;53.572;10.170;2023-04-21T06:35:53;9.40;99.90
46091;DHT22;31826;53.572;10.170;2023-04-21T06:38:19;9.50;99.90
46091;DHT22;31826;53.572;10.170;2023-04-21T06:40:45;9.60;99.90
46091;DHT22;31826;53.572;10.170;2023-04-21T06:43:11;9.70;99.90
46091;DHT22;31826;53.572;10.170;2023-04-21T06:45:37;9.80;99.90
46091;DHT22;31826;53.572;10.170;2023-04-21T06:48:02;9.90;99.90
46091;DHT22;31826;53.572;10.170;2023-04-21T06:50:28;10.00;99.90
46091;DHT22;31826;53.572;10.170;2023-04-21T06:52:54;10.10;99.90
46091;DHT22;31826;53.572;10.170;2023-04-21T06:55:20;10.20;99.90
46091;DHT22;31826;53.572;10.170;2023-04-21T06:57:45;10.20;99.90
46091;DHT22;31826;53.572;10.170;2023-04-21T07:00:11;10.40;99.90
46091;DHT22;31826;53.572;10.170;2023-04-21T07:02:38;10.50;99.90
46091;DHT22;31826;53.572;10.170;2023-04-21T07:05:04;10.60;99.90
46091;DHT22;31826;53.572;10.170;2023-04-21T07:07:30;10.80;99.90
46091;DHT22;31826;53.572;10.170;2023-04-21T07:09:55;10.90;99.90
46091;DHT22;31826;53.572;10.170;2023-04-21T07:12:21;11.00;99.90
46091;DHT22;31826;53.572;10.170;2023-04-21T07:14:47;11.20;99.90
46091;DHT22;31826;53.572;10.170;2023-04-21T07:17:12;11.30;99.90
46091;DHT22;31826;53.572;10.170;2023-04-21T07:19:38;11.40;99.90
46091;DHT22;31826;53.572;10.170;2023-04-21T07:22:04;11.50;99.90
46091;DHT22;31826;53.572;10.170;2023-04-21T07:24:30;11.60;99.90
46091;DHT22;31826;53.572;10.170;2023-04-21T07:26:56;11.70;99.90
46091;DHT22;31826;53.572;10.170;2023-04-21T07:29:22;11.70;99.90
46091;DHT22;31826;53.572;10.170;2023-04-21T07:31:48;11.80;99.90
46091;DHT22;31826;53.572;10.170;2023-04-21T07:34:14;12.00;99.90
46091;DHT22;31826;53.572;10.170;2023-04-21T07:36:39;12.00;99.90
46091;DHT22;31826;53.572;10.170;2023-04-21T07:39:05;12.10;99.90
46091;DHT22;31826;53.572;10.170;2023-04-21T07:41:32;12.30;99.90
46091;DHT22;31826;53.572;10.170;2023-04-21T07:43:57;12.30;99.90
46091;DHT22;31826;53.572;10.170;2023-04-21T07:46:23;12.40;99.90
46091;DHT22;31826;53.572;10.170;2023-04-21T07:48:55;12.40;99.90
46091;DHT22;31826;53.572;10.170;2023-04-21T07:51:21;12.70;99.90
46091;DHT22;31826;53.572;10.170;2023-04-21T07:53:47;12.80;99.90
46091;DHT22;31826;53.572;10.170;2023-04-21T07:56:13;12.90;99.90
46091;DHT22;31826;53.572;10.170;2023-04-21T07:58:38;13.10;99.90
46091;DHT22;31826;53.572;10.170;2023-04-21T08:01:04;13.30;99.90
46091;DHT22;31826;53.572;10.170;2023-04-21T08:03:30;13.50;99.90
46091;DHT22;31826;53.572;10.170;2023-04-21T08:05:56;13.50;99.90
46091;DHT22;31826;53.572;10.170;2023-04-21T08:08:21;13.60;99.90
46091;DHT22;31826;53.572;10.170;2023-04-21T08:10:47;13.60;99.90
46091;DHT22;31826;53.572;10.170;2023-04-21T08:13:13;13.70;99.90
46091;DHT22;31826;53.572;10.170;2023-04-21T08:15:38;13.80;99.90
46091;DHT22;31826;53.572;10.170;2023-04-21T08:18:05;13.90;99.90
46091;DHT22;31826;53.572;10.170;2023-04-21T08:20:30;14.00;99.90
46091;DHT22;31826;53.572;10.170;2023-04-21T08:22:56;14.20;99.90
46091;DHT22;31826;53.572;10.170;2023-04-21T08:25:22;14.40;99.90
46091;DHT22;31826;53.572;10.170;2023-04-21T08:27:48;14.40;99.90
46091;DHT22;31826;53.572;10.170;2023-04-21T08:30:14;14.60;99.90
46091;DHT22;31826;53.572;10.170;2023-04-21T08:32:40;14.70;99.90
46091;DHT22;31826;53.572;10.170;2023-04-21T08:35:06;14.90;99.90
46091;DHT22;31826;53.572;10.170;2023-04-21T08:37:32;15.10;99.90
46091;DHT22;31826;53.572;10.170;2023-04-21T08:40:00;15.30;99.90
46091;DHT22;31826;53.572;10.170;2023-04-21T08:42:25;15.20;99.70
46091;DHT22;31826;53.572;10.170;2023-04-21T08:44:51;15.20;99.80
46091;DHT22;31826;53.572;10.170;2023-04-21T08:47:18;15.30;99.90
46091;DHT22;31826;53.572;10.170;2023-04-21T08:49:45;15.50;99.90
46091;DHT22;31826;53.572;10.170;2023-04-21T08:52:14;15.70;99.90
46091;DHT22;31826;53.572;10.170;2023-04-21T08:54:40;15.90;99.90
46091;DHT22;31826;53.572;10.170;2023-04-21T08:57:06;16.10;99.90
46091;DHT22;31826;53.572;10.170;2023-04-21T08:59:31;16.40;99.90
46091;DHT22;31826;53.572;10.170;2023-04-21T09:02:19;16.50;99.90
46091;DHT22;31826;53.572;10.170;2023-04-21T09:04:47;16.60;98.50
46091;DHT22;31826;53.572;10.170;2023-04-21T09:07:34;16.80;99.10
46091;DHT22;31826;53.572;10.170;2023-04-21T09:10:00;16.90;98.70
46091;DHT22;31826;53.572;10.170;2023-04-21T09:12:28;17.10;98.00
46091;DHT22;31826;53.572;10.170;2023-04-21T09:14:54;17.10;97.50
46091;DHT22;31826;53.572;10.170;2023-04-21T09:17:27;17.30;97.90
46091;DHT22;31826;53.572;10.170;2023-04-21T09:19:53;17.40;97.70
46091;DHT22;31826;53.572;10.170;2023-04-21T09:22:18;17.40;97.70
46091;DHT22;31826;53.572;10.170;2023-04-21T09:24:48;17.60;97.90
46091;DHT22;31826;53.572;10.170;2023-04-21T09:27:16;17.60;96.10
46091;DHT22;31826;53.572;10.170;2023-04-21T09:29:46;17.50;95.70
46091;DHT22;31826;53.572;10.170;2023-04-21T09:32:18;17.50;95.90
46091;DHT22;31826;53.572;10.170;2023-04-21T09:34:44;17.60;96.30
46091;DHT22;31826;53.572;10.170;2023-04-21T09:37:11;17.60;95.70
46091;DHT22;31826;53.572;10.170;2023-04-21T09:39:44;17.60;96.30
46091;DHT22;31826;53.572;10.170;2023-04-21T09:42:10;17.90;96.20
46091;DHT22;31826;53.572;10.170;2023-04-21T09:44:36;17.90;95.40
46091;DHT22;31826;53.572;10.170;2023-04-21T09:47:03;18.00;97.50
46091;DHT22;31826;53.572;10.170;2023-04-21T09:49:32;18.00;95.50
46091;DHT22;31826;53.572;10.170;2023-04-21T09:52:00;17.90;95.90
46091;DHT22;31826;53.572;10.170;2023-04-21T09:54:31;17.90;95.20
46091;DHT22;31826;53.572;10.170;2023-04-21T09:57:02;18.00;96.90
46091;DHT22;31826;53.572;10.170;2023-04-21T09:59:35;18.20;95.80
46091;DHT22;31826;53.572;10.170;2023-04-21T10:02:05;18.50;95.80
46091;DHT22;31826;53.572;10.170;2023-04-21T10:04:33;18.70;96.60
46091;DHT22;31826;53.572;10.170;2023-04-21T10:06:59;19.00;96.10
46091;DHT22;31826;53.572;10.170;2023-04-21T10:09:32;19.00;96.10
46091;DHT22;31826;53.572;10.170;2023-04-21T10:12:00;19.20;95.70
46091;DHT22;31826;53.572;10.170;2023-04-21T10:14:27;19.00;94.10
46091;DHT22;31826;53.572;10.170;2023-04-21T10:16:57;19.20;93.10
46091;DHT22;31826;53.572;10.170;2023-04-21T10:19:25;19.30;94.70
46091;DHT22;31826;53.572;10.170;2023-04-21T10:21:54;19.40;93.90
46091;DHT22;31826;53.572;10.170;2023-04-21T10:24:20;19.60;93.40
46091;DHT22;31826;53.572;10.170;2023-04-21T10:26:49;19.70;92.20
46091;DHT22;31826;53.572;10.170;2023-04-21T10:29:16;19.80;92.30
46091;DHT22;31826;53.572;10.170;2023-04-21T10:31:53;19.90;93.70
46091;DHT22;31826;53.572;10.170;2023-04-21T10:34:21;20.00;92.10
46091;DHT22;31826;53.572;10.170;2023-04-21T10:39:44;20.30;91.80
46091;DHT22;31826;53.572;10.170;2023-04-21T10:44:43;20.30;90.70
46091;DHT22;31826;53.572;10.170;2023-04-21T10:47:09;20.30;91.70
46091;DHT22;31826;53.572;10.170;2023-04-21T10:49:39;20.30;90.70
46091;DHT22;31826;53.572;10.170;2023-04-21T10:52:07;20.70;91.70
46091;DHT22;31826;53.572;10.170;2023-04-21T10:57:05;21.00;90.90
46091;DHT22;31826;53.572;10.170;2023-04-21T10:59:33;21.00;90.00
46091;DHT22;31826;53.572;10.170;2023-04-21T11:01:59;20.80;89.40
46091;DHT22;31826;53.572;10.170;2023-04-21T11:04:25;20.70;90.90
46091;DHT22;31826;53.572;10.170;2023-04-21T11:07:11;20.80;90.90
46091;DHT22;31826;53.572;10.170;2023-04-21T11:09:38;21.20;88.90
46091;DHT22;31826;53.572;10.170;2023-04-21T11:12:15;21.40;88.20
46091;DHT22;31826;53.572;10.170;2023-04-21T11:14:44;21.20;86.50
46091;DHT22;31826;53.572;10.170;2023-04-21T11:17:15;21.10;86.50
46091;DHT22;31826;53.572;10.170;2023-04-21T11:19:44;20.90;85.30
46091;DHT22;31826;53.572;10.170;2023-04-21T11:22:10;21.10;88.20
46091;DHT22;31826;53.572;10.170;2023-04-21T11:24:35;21.30;85.00
46091;DHT22;31826;53.572;10.170;2023-04-21T11:27:01;21.40;86.40
46091;DHT22;31826;53.572;10.170;2023-04-21T11:29:27;21.40;83.50
46091;DHT22;31826;53.572;10.170;2023-04-21T11:31:56;21.40;83.30
46091;DHT22;31826;53.572;10.170;2023-04-21T11:34:25;21.50;81.50
46091;DHT22;31826;53.572;10.170;2023-04-21T11:36:51;21.60;83.50
46091;DHT22;31826;53.572;10.170;2023-04-21T11:39:17;21.50;81.10
46091;DHT22;31826;53.572;10.170;2023-04-21T11:41:48;21.70;83.50
46091;DHT22;31826;53.572;10.170;2023-04-21T11:46:58;21.70;81.70
46091;DHT22;31826;53.572;10.170;2023-04-21T11:49:24;21.70;81.70
46091;DHT22;31826;53.572;10.170;2023-04-21T11:51:52;21.60;82.20
46091;DHT22;31826;53.572;10.170;2023-04-21T11:54:17;21.40;80.20
46091;DHT22;31826;53.572;10.170;2023-04-21T11:56:46;21.70;81.90
46091;DHT22;31826;53.572;10.170;2023-04-21T11:59:14;21.90;78.80
46091;DHT22;31826;53.572;10.170;2023-04-21T12:04:17;21.70;79.80
46091;DHT22;31826;53.572;10.170;2023-04-21T12:06:45;21.90;78.70
46091;DHT22;31826;53.572;10.170;2023-04-21T12:09:18;21.80;79.70
46091;DHT22;31826;53.572;10.170;2023-04-21T12:11:47;21.70;79.60
46091;DHT22;31826;53.572;10.170;2023-04-21T12:14:14;21.80;80.30
46091;DHT22;31826;53.572;10.170;2023-04-21T12:16:41;21.60;77.60
46091;DHT22;31826;53.572;10.170;2023-04-21T12:19:07;21.80;78.60
46091;DHT22;31826;53.572;10.170;2023-04-21T12:21:36;21.90;77.10
46091;DHT22;31826;53.572;10.170;2023-04-21T12:24:02;21.80;78.40
46091;DHT22;31826;53.572;10.170;2023-04-21T12:26:28;22.00;77.20
46091;DHT22;31826;53.572;10.170;2023-04-21T12:28:54;22.10;76.20
46091;DHT22;31826;53.572;10.170;2023-04-21T12:31:20;21.80;74.00
46091;DHT22;31826;53.572;10.170;2023-04-21T12:33:46;22.30;73.10
46091;DHT22;31826;53.572;10.170;2023-04-21T12:36:12;22.20;72.10
46091;DHT22;31826;53.572;10.170;2023-04-21T12:38:38;22.10;71.90
46091;DHT22;31826;53.572;10.170;2023-04-21T12:41:03;22.20;73.40
46091;DHT22;31826;53.572;10.170;2023-04-21T12:43:30;22.20;71.30
46091;DHT22;31826;53.572;10.170;2023-04-21T12:45:56;22.20;72.20
46091;DHT22;31826;53.572;10.170;2023-04-21T12:48:22;22.20;72.40
46091;DHT22;31826;53.572;10.170;2023-04-21T12:50:48;22.50;74.40
46091;DHT22;31826;53.572;10.170;2023-04-21T12:53:14;22.40;71.20
46091;DHT22;31826;53.572;10.170;2023-04-21T12:55:39;22.40;72.20
46091;DHT22;31826;53.572;10.170;2023-04-21T12:58:06;22.50;72.20
46091;DHT22;31826;53.572;10.170;2023-04-21T13:00:32;22.40;73.10
46091;DHT22;31826;53.572;10.170;2023-04-21T13:03:00;22.60;71.70
46091;DHT22;31826;53.572;10.170;2023-04-21T13:05:26;22.10;70.50
46091;DHT22;31826;53.572;10.170;2023-04-21T13:07:52;21.70;71.30
46091;DHT22;31826;53.572;10.170;2023-04-21T13:10:17;21.70;73.20
46091;DHT22;31826;53.572;10.170;2023-04-21T13:12:43;21.70;72.10
46091;DHT22;31826;53.572;10.170;2023-04-21T13:15:09;21.90;72.70
46091;DHT22;31826;53.572;10.170;2023-04-21T13:17:35;22.10;73.50
46091;DHT22;31826;53.572;10.170;2023-04-21T13:20:01;22.30;71.80
46091;DHT22;31826;53.572;10.170;2023-04-21T13:22:26;22.30;71.60
46091;DHT22;31826;53.572;10.170;2023-04-21T13:24:52;22.30;70.90
46091;DHT22;31826;53.572;10.170;2023-04-21T13:27:18;22.50;70.90
46091;DHT22;31826;53.572;10.170;2023-04-21T13:29:44;22.10;70.40
46091;DHT22;31826;53.572;10.170;2023-04-21T13:32:11;21.50;71.50
46091;DHT22;31826;53.572;10.170;2023-04-21T13:34:37;21.40;73.10
46091;DHT22;31826;53.572;10.170;2023-04-21T13:37:03;21.60;73.20
46091;DHT22;31826;53.572;10.170;2023-04-21T13:39:29;21.60;71.30
46091;DHT22;31826;53.572;10.170;2023-04-21T13:41:54;21.50;72.30
46091;DHT22;31826;53.572;10.170;2023-04-21T13:44:21;21.10;72.80
46091;DHT22;31826;53.572;10.170;2023-04-21T13:46:46;20.80;73.60
46091;DHT22;31826;53.572;10.170;2023-04-21T13:49:12;20.90;73.70
46091;DHT22;31826;53.572;10.170;2023-04-21T13:51:38;21.30;75.40
46091;DHT22;31826;53.572;10.170;2023-04-21T13:54:04;21.60;73.00
46091;DHT22;31826;53.572;10.170;2023-04-21T13:56:30;21.50;72.40
46091;DHT22;31826;53.572;10.170;2023-04-21T13:58:56;21.50;72.20
46091;DHT22;31826;53.572;10.170;2023-04-21T14:01:22;21.70;74.90
46091;DHT22;31826;53.572;10.170;2023-04-21T14:03:48;21.70;73.80
46091;DHT22;31826;53.572;10.170;2023-04-21T14:06:13;21.90;73.20
46091;DHT22;31826;53.572;10.170;2023-04-21T14:08:39;22.00;71.70
46091;DHT22;31826;53.572;10.170;2023-04-21T14:11:05;21.90;73.30
46091;DHT22;31826;53.572;10.170;2023-04-21T14:13:30;21.40;72.60
46091;DHT22;31826;53.572;10.170;2023-04-21T14:15:57;21.00;72.40
46091;DHT22;31826;53.572;10.170;2023-04-21T14:18:22;20.60;74.80
46091;DHT22;31826;53.572;10.170;2023-04-21T14:20:48;20.50;76.30
46091;DHT22;31826;53.572;10.170;2023-04-21T14:23:15;20.50;76.30
46091;DHT22;31826;53.572;10.170;2023-04-21T14:25:40;20.50;76.50
46091;DHT22;31826;53.572;10.170;2023-04-21T14:28:06;20.40;75.70
46091;DHT22;31826;53.572;10.170;2023-04-21T14:30:36;20.40;76.20
46091;DHT22;31826;53.572;10.170;2023-04-21T14:33:03;20.30;76.10
46091;DHT22;31826;53.572;10.170;2023-04-21T14:35:29;20.30;75.80
46091;DHT22;31826;53.572;10.170;2023-04-21T14:37:56;20.30;75.00
46091;DHT22;31826;53.572;10.170;2023-04-21T14:40:23;20.30;74.80
46091;DHT22;31826;53.572;10.170;2023-04-21T14:42:49;20.30;75.70
46091;DHT22;31826;53.572;10.170;2023-04-21T14:45:14;20.30;76.10
46091;DHT22;31826;53.572;10.170;2023-04-21T14:47:41;20.20;76.80
46091;DHT22;31826;53.572;10.170;2023-04-21T14:50:07;20.20;76.40
46091;DHT22;31826;53.572;10.170;2023-04-21T14:52:33;20.40;77.40
46091;DHT22;31826;53.572;10.170;2023-04-21T14:54:59;20.60;76.50
46091;DHT22;31826;53.572;10.170;2023-04-21T14:57:25;20.90;75.90
46091;DHT22;31826;53.572;10.170;2023-04-21T14:59:52;20.80;75.20
46091;DHT22;31826;53.572;10.170;2023-04-21T15:02:18;20.70;75.00
46091;DHT22;31826;53.572;10.170;2023-04-21T15:04:44;20.50;73.90
46091;DHT22;31826;53.572;10.170;2023-04-21T15:07:10;20.20;74.50
46091;DHT22;31826;53.572;10.170;2023-04-21T15:09:36;20.10;75.40
46091;DHT22;31826;53.572;10.170;2023-04-21T15:12:04;20.30;75.90
46091;DHT22;31826;53.572;10.170;2023-04-21T15:14:30;20.20;75.60
46091;DHT22;31826;53.572;10.170;2023-04-21T15:16:56;20.10;76.90
46091;DHT22;31826;53.572;10.170;2023-04-21T15:19:22;20.10;76.90
46091;DHT22;31826;53.572;10.170;2023-04-21T15:21:47;20.10;76.30
46091;DHT22;31826;53.572;10.170;2023-04-21T15:24:14;20.00;77.00
46091;DHT22;31826;53.572;10.170;2023-04-21T15:26:39;20.00;75.70
46091;DHT22;31826;53.572;10.170;2023-04-21T15:29:05;19.90;76.60
46091;DHT22;31826;53.572;10.170;2023-04-21T15:31:31;19.90;78.20